Terminal Aerodrome Forecast
Issued by NWS

Home | Current Version | Previous Version | Text Only | Print | Product List | Glossary On
Versions: 1 2 3 4 5 6 7 8 9 10 11 12 13 14 15 16 17 18 19 20 21 22 23 24
000
FTUS43 KGRB 201134
TAFMTW
TAF
KMTW 201134Z 2012/2112 35003KT 1SM -DZ BR OVC002
      TEMPO 2012/2014 1/2SM -FZRA FG
     FM201500 VRB03KT 2SM -DZ BR OVC002
     FM201800 23006KT 5SM BR OVC006
     FM202100 27009G17KT P6SM OVC012
     FM210000 28010G18KT P6SM SCT025=

USA.gov is the U.S. government's official web portal to all federal, state and local government web resources and services.